Latest Weather Observations for Inner Beacon

IDQ60801

Issued at 11:35 pm EST Sunday 23 November 2014 (issued every 30 minutes, with the page automatically refreshed every 10 minutes)

About weather observations | Map of weather stations | Latest weather observations for QLD | Other Formats
Station Details ID: 040926 Name: INNER RECIPROCAL MARKER Lat: -27.26 Lon: 153.24 Height: 20.0 m
Data from the previous 72 hours. | See also: Recent months for locations in Queensland
Date/Time
EST
Temp
°C
App
Temp
°C
Dew
Point
Rel
Hum
%
Delta-T
°C
Wind Press
QNH
hPa
Press
MSL
hPa
Rain
since 9 am
mm
Dir
 
Spd
km/h
Gust
km/h
Spd
kts
Gust
kts
23/11:30pm - - - - - NE 35 43 19 23 - - -
23/11:00pm - - - - - NE 35 43 19 23 - - -
23/10:30pm - - - - - NE 39 48 21 26 - - -
23/10:00pm - - - - - NE 39 46 21 25 - - -
23/09:30pm - - - - - NE 39 44 21 24 - - -
23/09:00pm - - - - - NE 37 43 20 23 - - -
23/08:30pm - - - - - NE 35 41 19 22 - - -
23/08:00pm - - - - - NE 33 39 18 21 - - -
23/07:30pm - - - - - NE 33 37 18 20 - - -
23/07:00pm - - - - - NE 33 39 18 21 - - -
23/06:30pm - - - - - NE 37 44 20 24 - - -
23/06:00pm - - - - - NE 37 46 20 25 - - -
23/05:30pm - - - - - NE 39 44 21 24 - - -
23/05:00pm - - - - - NE 37 44 20 24 - - -
23/04:30pm - - - - - NE 33 43 18 23 - - -
23/04:00pm - - - - - NE 39 46 21 25 - - -
23/03:30pm - - - - - NE 39 44 21 24 - - -
23/03:00pm - - - - - NE 39 44 21 24 - - -
23/02:30pm - - - - - NE 37 44 20 24 - - -
23/02:00pm - - - - - NE 37 44 20 24 - - -
23/01:30pm - - - - - NE 35 43 19 23 - - -
23/01:00pm - - - - - NE 37 43 20 23 - - -
23/12:30pm - - - - - NE 35 41 19 22 - - -
23/12:00pm - - - - - NE 33 41 18 22 - - -
23/11:30am - - - - - NE 33 39 18 21 - - -
23/11:00am - - - - - NE 32 37 17 20 - - -
23/10:30am - - - - - NE 32 37 17 20 - - -
23/10:00am - - - - - NE 32 37 17 20 - - -
23/09:30am - - - - - NE 30 33 16 18 - - -
23/09:00am - - - - - NE 30 33 16 18 - - -
23/08:30am - - - - - NE 28 33 15 18 - - -
23/08:00am - - - - - NNW 22 26 12 14 - - -
23/07:30am - - - - - NNW 22 26 12 14 - - -
23/07:00am - - - - - NNW 26 32 14 17 - - -
23/06:30am - - - - - N 28 33 15 18 - - -
23/06:00am - - - - - N 28 33 15 18 - - -
23/05:30am - - - - - N 30 33 16 18 - - -
23/05:00am - - - - - N 32 35 17 19 - - -
23/04:30am - - - - - N 35 41 19 22 - - -
23/04:00am - - - - - N 39 44 21 24 - - -
23/03:30am - - - - - NE 39 46 21 25 - - -
23/03:00am - - - - - NE 39 44 21 24 - - -
23/02:30am - - - - - NE 43 48 23 26 - - -
23/02:00am - - - - - NNE 43 52 23 28 - - -
23/01:30am - - - - - NE 39 48 21 26 - - -
23/01:00am - - - - - NE 43 50 23 27 - - -
23/12:30am - - - - - NE 41 48 22 26 - - -
23/12:00am - - - - - NE 39 46 21 25 - - -
 
Date/Time
EST
Temp
°C
App
Temp
°C
Dew
Point
Rel
Hum
%
Delta-T
°C
Wind Press
QNH
hPa
Press
MSL
hPa
Rain
since 9 am
mm
Dir
 
Spd
km/h
Gust
km/h
Spd
kts
Gust
kts
22/11:30pm - - - - - NE 41 48 22 26 - - -
22/11:00pm - - - - - NE 43 50 23 27 - - -
22/10:30pm - - - - - NE 43 52 23 28 - - -
22/10:00pm - - - - - NE 44 52 24 28 - - -
22/09:30pm - - - - - NE 44 52 24 28 - - -
22/09:00pm - - - - - NE 43 52 23 28 - - -
22/08:30pm - - - - - NE 44 52 24 28 - - -
22/08:00pm - - - - - NE 43 52 23 28 - - -
22/07:30pm - - - - - NE 44 52 24 28 - - -
22/07:00pm - - - - - NE 43 48 23 26 - - -
22/06:30pm - - - - - NE 44 50 24 27 - - -
22/06:00pm - - - - - NE 43 50 23 27 - - -
22/05:30pm - - - - - NE 43 50 23 27 - - -
22/05:00pm - - - - - NE 43 52 23 28 - - -
22/04:30pm - - - - - NE 43 50 23 27 - - -
22/04:00pm - - - - - NE 44 54 24 29 - - -
22/03:30pm - - - - - NE 46 56 25 30 - - -
22/03:00pm - - - - - NE 46 56 25 30 - - -
22/02:30pm - - - - - NE 46 56 25 30 - - -
22/02:00pm - - - - - NE 44 52 24 28 - - -
22/01:30pm - - - - - NE 44 52 24 28 - - -
22/01:00pm - - - - - NE 44 54 24 29 - - -
22/12:30pm - - - - - NE 41 50 22 27 - - -
22/12:00pm - - - - - NE 39 48 21 26 - - -
22/11:30am - - - - - NE 39 46 21 25 - - -
22/11:00am - - - - - NE 39 46 21 25 - - -
22/10:30am - - - - - NE 37 46 20 25 - - -
22/10:00am - - - - - NE 35 41 19 22 - - -
22/09:30am - - - - - NE 32 37 17 20 - - -
22/09:00am - - - - - NE 33 39 18 21 - - -
22/08:30am - - - - - NE 33 39 18 21 - - -
22/08:00am - - - - - NE 28 32 15 17 - - -
22/07:30am - - - - - N 24 28 13 15 - - -
22/07:00am - - - - - NNE 28 32 15 17 - - -
22/06:30am - - - - - NE 30 33 16 18 - - -
22/06:00am - - - - - N 30 37 16 20 - - -
22/05:30am - - - - - NNE 33 39 18 21 - - -
22/05:00am - - - - - NNE 33 39 18 21 - - -
22/04:30am - - - - - N 33 39 18 21 - - -
22/04:00am - - - - - N 33 37 18 20 - - -
22/03:30am - - - - - N 33 39 18 21 - - -
22/03:00am - - - - - N 37 44 20 24 - - -
22/02:30am - - - - - NNE 44 56 24 30 - - -
22/02:00am - - - - - NE 46 56 25 30 - - -
22/01:30am - - - - - NE 44 54 24 29 - - -
22/01:20am - - - - - NE 41 46 22 25 - - -
22/01:00am - - - - - NNE 43 48 23 26 - - -
22/12:30am - - - - - NNE 43 50 23 27 - - -
22/12:29am - - - - - NNE 41 46 22 25 - - -
22/12:00am - - - - - NE 48 56 26 30 - - -
 
Date/Time
EST
Temp
°C
App
Temp
°C
Dew
Point
Rel
Hum
%
Delta-T
°C
Wind Press
QNH
hPa
Press
MSL
hPa
Rain
since 9 am
mm
Dir
 
Spd
km/h
Gust
km/h
Spd
kts
Gust
kts
21/11:30pm - - - - - NE 41 50 22 27 - - -
21/11:00pm - - - - - NE 43 52 23 28 - - -
21/10:30pm - - - - - NE 43 52 23 28 - - -
21/10:00pm - - - - - NE 46 56 25 30 - - -
21/09:30pm - - - - - NE 43 52 23 28 - - -
21/09:00pm - - - - - NE 44 54 24 29 - - -
21/08:30pm - - - - - NE 44 54 24 29 - - -
21/08:00pm - - - - - NE 46 54 25 29 - - -
21/07:30pm - - - - - NE 46 54 25 29 - - -
21/07:00pm - - - - - NE 44 56 24 30 - - -
21/06:30pm - - - - - NE 46 57 25 31 - - -
21/06:00pm - - - - - NE 50 61 27 33 - - -
21/05:30pm - - - - - NE 50 59 27 32 - - -
21/05:00pm - - - - - NE 52 57 28 31 - - -
21/04:30pm - - - - - NE 48 57 26 31 - - -
21/04:00pm - - - - - NE 46 54 25 29 - - -
21/03:30pm - - - - - NE 46 56 25 30 - - -
21/03:00pm - - - - - NE 44 52 24 28 - - -
21/02:30pm - - - - - NE 44 54 24 29 - - -
21/02:00pm - - - - - NE 43 50 23 27 - - -
21/01:30pm - - - - - NE 43 50 23 27 - - -
21/01:00pm - - - - - NE 39 46 21 25 - - -
21/12:30pm - - - - - NE 39 44 21 24 - - -
21/12:00pm - - - - - NE 37 44 20 24 - - -
21/11:30am - - - - - NE 35 41 19 22 - - -
21/11:00am - - - - - NE 37 43 20 23 - - -
21/10:30am - - - - - NE 33 39 18 21 - - -
21/10:00am - - - - - NE 32 35 17 19 - - -
21/09:30am - - - - - NE 33 41 18 22 - - -
21/09:00am - - - - - NE 30 33 16 18 - - -
21/08:30am - - - - - NE 30 35 16 19 - - -
21/08:00am - - - - - NE 30 35 16 19 - - -
21/07:30am - - - - - NE 32 35 17 19 - - -
21/07:00am - - - - - NNE 30 35 16 19 - - -
21/06:30am - - - - - NE 26 32 14 17 - - -
21/06:00am - - - - - NE 32 35 17 19 - - -
21/05:30am - - - - - NE 28 33 15 18 - - -
21/05:00am - - - - - N 22 26 12 14 - - -
21/04:30am - - - - - N 24 26 13 14 - - -
21/04:00am - - - - - N 24 30 13 16 - - -
21/03:30am - - - - - N 20 26 11 14 - - -
21/03:00am - - - - - NE 32 35 17 19 - - -
21/02:30am - - - - - NE 33 39 18 21 - - -
21/02:00am - - - - - NE 33 37 18 20 - - -
21/01:30am - - - - - NE 33 37 18 20 - - -
21/01:00am - - - - - NE 33 41 18 22 - - -
21/12:30am - - - - - NE 32 37 17 20 - - -
21/12:00am - - - - - NE 32 37 17 20 - - -

Other Formats:

Comma delimited format used in spreadsheet applications
http://www.bom.gov.au/fwo/IDQ60801/IDQ60801.94590.axf

JavaScript Object Notation format (JSON) in row-major order
http://www.bom.gov.au/fwo/IDQ60801/IDQ60801.94590.json